| time (UTC) | temp C | wind direction | speed KPH | gust KPH | rain 1hr cm | rain 24hr cm | rain mn cm | humidity % | barometer mb |
| 20260510030903 | 12 | 70 | 3.2 | 6.4 | 0.00 | 0.00 | 0.00 | 85 | 1010.5 |
| 20260510030024 | 12 | 309 | 3.2 | 6.4 | 0.00 | 0.00 | 0.00 | 82 | 1010.4 |
| 20260510025403 | 12 | 273 | 4.8 | 6.4 | 0.00 | 0.00 | 0.00 | 84 | 1010.3 |
| 20260510024524 | 12 | 251 | 1.6 | 6.4 | 0.00 | 0.00 | 0.00 | 84 | 1010.3 |
| 20260510023603 | 13 | 117 | 0.0 | 3.2 | 0.00 | 0.00 | 0.00 | 83 | 1010.2 |
| 20260510022724 | 13 | 82 | 1.6 | 4.8 | 0.00 | 0.00 | 0.00 | 82 | 1010.0 |
| 20260510021803 | 13 | 216 | 1.6 | 4.8 | 0.00 | 0.00 | 0.00 | 77 | 1009.8 |
| 20260510020903 | 13 | 220 | 1.6 | 4.8 | 0.00 | 0.00 | 0.00 | 77 | 1009.7 |
| 20260510020003 | 14 | 146 | 0.0 | 3.2 | 0.00 | 0.00 | 0.00 | 77 | 1009.6 |
| 20260510015403 | 15 | 98 | 1.6 | 4.8 | 0.00 | 0.00 | 0.00 | 74 | 1009.5 |
| 20260510014503 | 15 | 43 | 1.6 | 3.2 | 0.00 | 0.00 | 0.00 | 73 | 1009.3 |
| 20260510013603 | 15 | 320 | 1.6 | 3.2 | 0.00 | 0.00 | 0.00 | 70 | 1009.1 |
| 20260510012703 | 16 | 320 | 3.2 | 4.8 | 0.00 | 0.00 | 0.00 | 69 | 1008.8 |
| 20260510011803 | 16 | 314 | 4.8 | 6.4 | 0.00 | 0.00 | 0.00 | 67 | 1008.6 |
| 20260510010924 | 16 | 326 | 4.8 | 9.7 | 0.00 | 0.00 | 0.00 | 66 | 1008.6 |
| 20260510010003 | 17 | 250 | 4.8 | 14.5 | 0.00 | 0.00 | 0.00 | 60 | 1008.2 |
| 20260510005424 | 18 | 252 | 4.8 | 6.4 | 0.00 | 0.00 | 0.00 | 61 | 1008.2 |
| 20260510004503 | 18 | 303 | 4.8 | 6.4 | 0.00 | 0.00 | 0.00 | 61 | 1008.0 |
| 20260510003603 | 18 | 263 | 4.8 | 6.4 | 0.00 | 0.00 | 0.00 | 57 | 1007.8 |
| 20260510002703 | 19 | 213 | 4.8 | 6.4 | 0.00 | 0.00 | 0.00 | 56 | 1007.6 |
| 20260510001803 | 20 | 219 | 4.8 | 8.0 | 0.00 | 0.00 | 0.00 | 55 | 1007.5 |
| 20260510000903 | 20 | 225 | 3.2 | 6.4 | 0.00 | 0.00 | 0.00 | 56 | 1007.3 |
| 20260510000003 | 20 | 232 | 3.2 | 4.8 | 0.00 | 0.00 | 0.00 | 54 | 1007.4 |
| 20260509235403 | 21 | 231 | 4.8 | 8.0 | 0.00 | 0.00 | 0.00 | 53 | 1007.4 |
| 20260509234524 | 21 | 226 | 4.8 | 6.4 | 0.00 | 0.00 | 0.00 | 51 | 1007.3 |
| 20260509233603 | 22 | 212 | 3.2 | 6.4 | 0.00 | 0.00 | 0.00 | 50 | 1007.3 |
| 20260509232703 | 22 | 187 | 1.6 | 6.4 | 0.00 | 0.00 | 0.00 | 51 | 1007.4 |
| 20260509231824 | 22 | 204 | 1.6 | 3.2 | 0.00 | 0.00 | 0.00 | 52 | 1007.2 |
| 20260509230924 | 21 | 190 | 1.6 | 8.0 | 0.00 | 0.00 | 0.00 | 51 | 1007.2 |
| 20260509230003 | 21 | 207 | 4.8 | 9.7 | 0.00 | 0.00 | 0.00 | 49 | 1007.1 |
| 20260509225403 | 21 | 206 | 4.8 | 9.7 | 0.00 | 0.00 | 0.00 | 49 | 1006.9 |
| 20260509224503 | 22 | 199 | 6.4 | 12.9 | 0.00 | 0.00 | 0.00 | 48 | 1007.2 |
| 20260509223603 | 22 | 190 | 6.4 | 11.3 | 0.00 | 0.00 | 0.00 | 47 | 1007.1 |
| 20260509222703 | 22 | 170 | 4.8 | 11.3 | 0.00 | 0.00 | 0.00 | 48 | 1007.2 |
| 20260509221803 | 22 | 176 | 4.8 | 12.9 | 0.00 | 0.00 | 0.00 | 48 | 1007.1 |
| 20260509220903 | 22 | 171 | 6.4 | 12.9 | 0.00 | 0.00 | 0.00 | 46 | 1007.1 |
| 20260509220003 | 22 | 176 | 8.0 | 16.1 | 0.00 | 0.00 | 0.00 | 45 | 1007.0 |
| 20260509215403 | 22 | 174 | 8.0 | 16.1 | 0.00 | 0.00 | 0.00 | 44 | 1006.9 |
| 20260509214503 | 22 | 183 | 9.7 | 22.5 | 0.00 | 0.00 | 0.00 | 45 | 1007.1 |
| 20260509213624 | 23 | 180 | 11.3 | 22.5 | 0.00 | 0.00 | 0.00 | 45 | 1006.9 |
| 20260509212703 | 23 | 173 | 8.0 | 24.1 | 0.00 | 0.00 | 0.00 | 42 | 1006.9 |
| 20260509211803 | 22 | 174 | 6.4 | 14.5 | 0.00 | 0.00 | 0.00 | 45 | 1006.7 |
| 20260509210903 | 22 | 186 | 6.4 | 14.5 | 0.00 | 0.00 | 0.00 | 44 | 1006.9 |
| 20260509210003 | 22 | 166 | 6.4 | 19.3 | 0.00 | 0.00 | 0.00 | 44 | 1006.7 |
| 20260509205403 | 22 | 158 | 6.4 | 16.1 | 0.00 | 0.00 | 0.00 | 44 | 1006.5 |
| 20260509204503 | 22 | 198 | 8.0 | 16.1 | 0.00 | 0.00 | 0.00 | 44 | 1006.7 |
| 20260509203603 | 22 | 181 | 8.0 | 24.1 | 0.00 | 0.00 | 0.00 | 44 | 1006.6 |
| 20260509202703 | 23 | 222 | 11.3 | 25.7 | 0.00 | 0.00 | 0.00 | 44 | 1006.5 |
| 20260509201803 | 23 | 173 | 9.7 | 25.7 | 0.00 | 0.00 | 0.00 | 43 | 1006.5 |
| 20260509200903 | 23 | 161 | 6.4 | 16.1 | 0.00 | 0.00 | 0.00 | 43 | 1006.4 |
| 20260509200003 | 22 | 187 | 9.7 | 19.3 | 0.00 | 0.00 | 0.00 | 43 | 1006.7 |
| 20260509195403 | 23 | 189 | 9.7 | 17.7 | 0.00 | 0.00 | 0.00 | 44 | 1006.7 |
| 20260509194503 | 22 | 183 | 11.3 | 20.9 | 0.00 | 0.00 | 0.00 | 44 | 1006.9 |
| 20260509193624 | 22 | 180 | 11.3 | 22.5 | 0.00 | 0.00 | 0.00 | 41 | 1007.0 |
| 20260509192703 | 23 | 185 | 11.3 | 29.0 | 0.00 | 0.00 | 0.00 | 41 | 1007.1 |
| 20260509191803 | 23 | 185 | 11.3 | 25.7 | 0.00 | 0.00 | 0.00 | 42 | 1007.2 |
| 20260509190903 | 23 | 150 | 8.0 | 17.7 | 0.00 | 0.00 | 0.00 | 46 | 1007.2 |
| 20260509190024 | 22 | 163 | 8.0 | 22.5 | 0.00 | 0.00 | 0.00 | 44 | 1007.2 |
| 20260509185403 | 22 | 173 | 6.4 | 17.7 | 0.00 | 0.00 | 0.00 | 47 | 1007.3 |
| 20260509184524 | 22 | 170 | 8.0 | 24.1 | 0.00 | 0.00 | 0.00 | 46 | 1007.5 |
| 20260509183603 | 22 | 166 | 6.4 | 17.7 | 0.00 | 0.00 | 0.00 | 48 | 1007.7 |
| 20260509182724 | 22 | 184 | 6.4 | 16.1 | 0.00 | 0.00 | 0.00 | 49 | 1007.8 |
| 20260509181803 | 21 | 177 | 9.7 | 17.7 | 0.00 | 0.00 | 0.00 | 47 | 1007.9 |
| 20260509180903 | 21 | 187 | 8.0 | 16.1 | 0.00 | 0.00 | 0.00 | 52 | 1008.1 |
| 20260509180003 | 21 | 184 | 9.7 | 16.1 | 0.00 | 0.00 | 0.00 | 52 | 1008.1 |
| 20260509175403 | 20 | 184 | 8.0 | 16.1 | 0.00 | 0.00 | 0.00 | 50 | 1008.4 |
| 20260509174503 | 20 | 178 | 6.4 | 14.5 | 0.00 | 0.00 | 0.00 | 53 | 1008.6 |
| 20260509173603 | 20 | 163 | 6.4 | 16.1 | 0.00 | 0.00 | 0.00 | 50 | 1008.7 |
| 20260509172703 | 20 | 166 | 8.0 | 17.7 | 0.00 | 0.00 | 0.00 | 52 | 1008.8 |
| 20260509171824 | 20 | 196 | 8.0 | 16.1 | 0.00 | 0.00 | 0.00 | 52 | 1008.9 |
| 20260509170903 | 20 | 194 | 9.7 | 19.3 | 0.00 | 0.00 | 0.00 | 50 | 1008.9 |
| 20260509170024 | 20 | 219 | 9.7 | 20.9 | 0.00 | 0.00 | 0.00 | 54 | 1008.9 |
| 20260509165403 | 20 | 199 | 9.7 | 17.7 | 0.00 | 0.00 | 0.00 | 53 | 1009.0 |
| 20260509164503 | 20 | 192 | 6.4 | 12.9 | 0.00 | 0.00 | 0.00 | 51 | 1008.9 |
| 20260509163603 | 20 | 195 | 8.0 | 16.1 | 0.00 | 0.00 | 0.00 | 52 | 1009.0 |
| 20260509162703 | 20 | 188 | 8.0 | 19.3 | 0.00 | 0.00 | 0.00 | 54 | 1008.9 |
| 20260509161803 | 20 | 187 | 9.7 | 19.3 | 0.00 | 0.00 | 0.00 | 57 | 1008.9 |
| 20260509160903 | 19 | 170 | 6.4 | 16.1 | 0.00 | 0.00 | 0.00 | 57 | 1008.9 |
| 20260509160024 | 19 | 188 | 8.0 | 14.5 | 0.00 | 0.00 | 0.00 | 56 | 1009.0 |
| 20260509155403 | 19 | 182 | 8.0 | 16.1 | 0.00 | 0.00 | 0.00 | 57 | 1008.9 |
| 20260509154504 | 19 | 192 | 9.7 | 19.3 | 0.00 | 0.00 | 0.00 | 59 | 1008.9 |
| 20260509153604 | 18 | 192 | 11.3 | 20.9 | 0.00 | 0.00 | 0.00 | 56 | 1008.9 |
| 20260509152703 | 18 | 184 | 11.3 | 20.9 | 0.00 | 0.00 | 0.00 | 59 | 1008.9 |
| 20260509151803 | 18 | 178 | 9.7 | 20.9 | 0.00 | 0.00 | 0.00 | 58 | 1008.8 |
| 20260509150903 | 18 | 176 | 8.0 | 19.3 | 0.00 | 0.00 | 0.00 | 59 | 1008.8 |
| 20260509150024 | 18 | 169 | 9.7 | 17.7 | 0.00 | 0.00 | 0.00 | 59 | 1008.9 |
| 20260509145403 | 19 | 156 | 8.0 | 17.7 | 0.00 | 0.00 | 0.00 | 55 | 1009.0 |
| 20260509144503 | 18 | 157 | 6.4 | 17.7 | 0.00 | 0.00 | 0.00 | 59 | 1008.8 |
| 20260509143603 | 18 | 161 | 8.0 | 16.1 | 0.00 | 0.00 | 0.00 | 60 | 1008.8 |
| 20260509142703 | 17 | 168 | 6.4 | 17.7 | 0.00 | 0.00 | 0.00 | 63 | 1008.8 |
| 20260509141803 | 17 | 185 | 6.4 | 17.7 | 0.00 | 0.00 | 0.00 | 63 | 1009.2 |
| 20260509140903 | 17 | 191 | 6.4 | 16.1 | 0.00 | 0.00 | 0.00 | 63 | 1009.5 |
| 20260509140004 | 17 | 174 | 6.4 | 17.7 | 0.00 | 0.00 | 0.00 | 62 | 1009.7 |
| 20260509135403 | 16 | 179 | 6.4 | 14.5 | 0.00 | 0.00 | 0.00 | 63 | 1009.8 |
| 20260509134503 | 16 | 180 | 8.0 | 14.5 | 0.00 | 0.00 | 0.00 | 62 | 1009.9 |
| 20260509133603 | 16 | 181 | 8.0 | 17.7 | 0.00 | 0.00 | 0.00 | 65 | 1009.9 |
| 20260509132703 | 15 | 173 | 6.4 | 17.7 | 0.00 | 0.00 | 0.00 | 64 | 1010.1 |
| 20260509131803 | 15 | 164 | 3.2 | 9.7 | 0.00 | 0.00 | 0.00 | 69 | 1010.0 |
| 20260509130903 | 15 | 149 | 3.2 | 8.0 | 0.00 | 0.00 | 0.00 | 69 | 1010.1 |
| 20260509130003 | 14 | 130 | 1.6 | 6.4 | 0.00 | 0.00 | 0.00 | 70 | 1010.0 |
| 20260509125403 | 14 | 137 | 1.6 | 6.4 | 0.00 | 0.00 | 0.00 | 70 | 1010.0 |
| 20260509124503 | 13 | 146 | 1.6 | 6.4 | 0.00 | 0.00 | 0.00 | 73 | 1009.8 |
| 20260509123624 | 13 | 142 | 1.6 | 6.4 | 0.00 | 0.00 | 0.00 | 75 | 1010.0 |
| 20260509122703 | 13 | 156 | 1.6 | 4.8 | 0.00 | 0.00 | 0.00 | 75 | 1010.1 |
| 20260509121803 | 13 | 145 | 3.2 | 6.4 | 0.00 | 0.00 | 0.00 | 73 | 1010.2 |
| 20260509120924 | 12 | 156 | 1.6 | 6.4 | 0.00 | 0.00 | 0.00 | 73 | 1010.1 |
| 20260509120024 | 12 | 201 | 1.6 | 6.4 | 0.00 | 0.00 | 0.00 | 75 | 1010.1 |
| 20260509115403 | 12 | 168 | 1.6 | 3.2 | 0.00 | 0.00 | 0.00 | 76 | 1010.1 |
| 20260509114503 | 12 | 142 | 1.6 | 3.2 | 0.00 | 0.00 | 0.00 | 75 | 1010.2 |
| 20260509113603 | 12 | 142 | 1.6 | 3.2 | 0.00 | 0.00 | 0.00 | 74 | 1010.3 |
| 20260509112703 | 12 | 142 | 0.0 | 3.2 | 0.00 | 0.00 | 0.00 | 74 | 1010.3 |
| 20260509111803 | 11 | 145 | 0.0 | 1.6 | 0.00 | 0.00 | 0.00 | 74 | 1010.3 |
| 20260509110903 | 11 | 145 | 0.0 | 3.2 | 0.00 | 0.00 | 0.00 | 74 | 1010.1 |
| 20260509110003 | 11 | 166 | 3.2 | 6.4 | 0.00 | 0.00 | 0.00 | 73 | 1010.1 |
| 20260509105424 | 11 | 167 | 3.2 | 6.4 | 0.00 | 0.00 | 0.00 | 73 | 1010.1 |
| 20260509104503 | 11 | 112 | 0.0 | 1.6 | 0.00 | 0.00 | 0.00 | 77 | 1010.1 |
| 20260509103603 | 11 | 171 | 0.0 | 4.8 | 0.00 | 0.00 | 0.00 | 76 | 1010.1 |
| 20260509102703 | 11 | 175 | 0.0 | 3.2 | 0.00 | 0.00 | 0.00 | 76 | 1010.2 |
| 20260509101803 | 11 | 0 | 0.0 | 0.0 | 0.00 | 0.00 | 0.00 | 78 | 1010.2 |
| 20260509100903 | 11 | 0 | 0.0 | 0.0 | 0.00 | 0.00 | 0.00 | 76 | 1010.2 |
| 20260509100004 | 11 | 0 | 0.0 | 0.0 | 0.00 | 0.00 | 0.00 | 74 | 1010.1 |
| 20260509095403 | 11 | 0 | 0.0 | 0.0 | 0.00 | 0.00 | 0.00 | 72 | 1010.1 |
| 20260509094503 | 11 | 173 | 0.0 | 1.6 | 0.00 | 0.00 | 0.00 | 70 | 1010.2 |
| 20260509093603 | 11 | 166 | 0.0 | 3.2 | 0.00 | 0.00 | 0.00 | 70 | 1010.3 |
| 20260509092703 | 11 | 155 | 1.6 | 3.2 | 0.00 | 0.00 | 0.00 | 71 | 1010.3 |
| 20260509091824 | 11 | 177 | 1.6 | 4.8 | 0.00 | 0.00 | 0.00 | 71 | 1010.4 |
| 20260509090924 | 11 | 176 | 1.6 | 3.2 | 0.00 | 0.00 | 0.00 | 73 | 1010.4 |
| 20260509090024 | 11 | 171 | 1.6 | 4.8 | 0.00 | 0.00 | 0.00 | 72 | 1010.4 |
| 20260509085403 | 11 | 172 | 1.6 | 6.4 | 0.00 | 0.00 | 0.00 | 72 | 1010.4 |
| 20260509084503 | 11 | 150 | 1.6 | 4.8 | 0.00 | 0.00 | 0.00 | 72 | 1010.5 |
| 20260509083624 | 11 | 126 | 1.6 | 3.2 | 0.00 | 0.00 | 0.00 | 71 | 1010.4 |
| 20260509082724 | 11 | 158 | 1.6 | 3.2 | 0.00 | 0.00 | 0.00 | 72 | 1010.4 |
| 20260509081803 | 11 | 172 | 1.6 | 6.4 | 0.00 | 0.00 | 0.00 | 68 | 1010.5 |
| 20260509080903 | 11 | 182 | 1.6 | 4.8 | 0.00 | 0.00 | 0.00 | 70 | 1010.5 |
| 20260509080003 | 11 | 0 | 0.0 | 0.0 | 0.00 | 0.00 | 0.00 | 71 | 1010.6 |
| 20260509075403 | 11 | 136 | 1.6 | 6.4 | 0.00 | 0.00 | 0.00 | 72 | 1010.6 |
| 20260509074503 | 11 | 148 | 3.2 | 8.0 | 0.00 | 0.00 | 0.00 | 72 | 1010.7 |
| 20260509073624 | 11 | 113 | 1.6 | 6.4 | 0.00 | 0.00 | 0.00 | 71 | 1010.7 |
| 20260509072703 | 11 | 86 | 1.6 | 6.4 | 0.00 | 0.00 | 0.00 | 70 | 1011.0 |
| 20260509071803 | 11 | 126 | 0.0 | 3.2 | 0.00 | 0.00 | 0.00 | 74 | 1011.1 |
| 20260509070903 | 11 | 126 | 1.6 | 3.2 | 0.00 | 0.00 | 0.00 | 74 | 1011.1 |
| 20260509070024 | 10 | 126 | 1.6 | 4.8 | 0.00 | 0.00 | 0.00 | 76 | 1011.0 |
| 20260509065403 | 10 | 151 | 1.6 | 4.8 | 0.00 | 0.00 | 0.00 | 76 | 1011.0 |
| 20260509064504 | 10 | 172 | 1.6 | 3.2 | 0.00 | 0.00 | 0.00 | 79 | 1011.2 |
| 20260509063624 | 10 | 172 | 1.6 | 6.4 | 0.00 | 0.00 | 0.00 | 80 | 1011.2 |
| 20260509062724 | 10 | 172 | 1.6 | 3.2 | 0.00 | 0.00 | 0.00 | 80 | 1011.3 |
| 20260509061803 | 9 | 164 | 3.2 | 6.4 | 0.00 | 0.00 | 0.00 | 80 | 1011.5 |
| 20260509060924 | 9 | 142 | 3.2 | 9.7 | 0.00 | 0.00 | 0.00 | 81 | 1011.5 |
| 20260509060004 | 8 | 143 | 1.6 | 4.8 | 0.00 | 0.00 | 0.00 | 84 | 1011.5 |
| 20260509055403 | 8 | 157 | 1.6 | 4.8 | 0.00 | 0.00 | 0.00 | 84 | 1011.6 |
| 20260509054503 | 8 | 152 | 3.2 | 6.4 | 0.00 | 0.00 | 0.00 | 86 | 1011.5 |
| 20260509053603 | 8 | 129 | 1.6 | 3.2 | 0.00 | 0.00 | 0.00 | 85 | 1011.7 |
| 20260509052703 | 8 | 141 | 1.6 | 4.8 | 0.00 | 0.00 | 0.00 | 84 | 1011.7 |
| 20260509051803 | 8 | 132 | 1.6 | 4.8 | 0.00 | 0.00 | 0.00 | 84 | 1011.6 |
| 20260509050903 | 8 | 181 | 1.6 | 4.8 | 0.00 | 0.00 | 0.00 | 83 | 1011.7 |
| 20260509050025 | 8 | 168 | 1.6 | 4.8 | 0.00 | 0.00 | 0.00 | 82 | 1011.6 |
| 20260509045403 | 8 | 198 | 3.2 | 6.4 | 0.00 | 0.00 | 0.00 | 81 | 1011.5 |
| 20260509044503 | 8 | 159 | 3.2 | 6.4 | 0.00 | 0.00 | 0.00 | 80 | 1011.5 |
| 20260509043603 | 9 | 122 | 4.8 | 8.0 | 0.00 | 0.00 | 0.00 | 80 | 1011.3 |
| 20260509042703 | 9 | 123 | 3.2 | 9.7 | 0.00 | 0.00 | 0.00 | 77 | 1011.5 |
| 20260509041803 | 9 | 145 | 1.6 | 9.7 | 0.00 | 0.00 | 0.00 | 77 | 1011.2 |
| 20260509040903 | 10 | 184 | 0.0 | 3.2 | 0.00 | 0.00 | 0.00 | 79 | 1011.5 |
| 20260509040004 | 10 | 195 | 1.6 | 3.2 | 0.00 | 0.00 | 0.00 | 78 | 1011.6 |
| 20260509035403 | 10 | 210 | 1.6 | 3.2 | 0.00 | 0.00 | 0.00 | 77 | 1011.6 |
| 20260509034503 | 10 | 168 | 1.6 | 4.8 | 0.00 | 0.00 | 0.00 | 75 | 1011.6 |
| 20260509033603 | 10 | 164 | 1.6 | 4.8 | 0.00 | 0.00 | 0.00 | 73 | 1011.5 |
| 20260509032724 | 10 | 163 | 1.6 | 8.0 | 0.00 | 0.00 | 0.00 | 74 | 1011.6 |
| 20260509031803 | 10 | 164 | 3.2 | 8.0 | 0.00 | 0.00 | 0.00 | 74 | 1011.5 |